sensor_id;sensor_type;location;lat;lon;timestamp;P1;durP1;ratioP1;P2;durP2;ratioP2
47966;SDS011;33733;52.456;13.620;2022-08-19T10:27:59;17.25;;;12.73;;
47966;SDS011;33733;52.456;13.620;2022-08-19T10:30:26;18.42;;;11.10;;
47966;SDS011;33733;52.456;13.620;2022-08-19T10:32:53;17.00;;;11.30;;
47966;SDS011;33733;52.456;13.620;2022-08-19T10:35:20;16.40;;;11.07;;
47966;SDS011;33733;52.456;13.620;2022-08-19T10:37:48;17.45;;;13.55;;
47966;SDS011;33733;52.456;13.620;2022-08-19T10:40:26;16.33;;;11.15;;
47966;SDS011;33733;52.456;13.620;2022-08-19T10:42:54;17.23;;;11.50;;
47966;SDS011;33733;52.456;13.620;2022-08-19T10:45:22;20.40;;;10.45;;
47966;SDS011;33733;52.456;13.620;2022-08-19T10:47:53;18.35;;;11.13;;
47966;SDS011;33733;52.456;13.620;2022-08-19T10:50:20;16.92;;;13.25;;
47966;SDS011;33733;52.456;13.620;2022-08-19T10:53:07;16.25;;;11.50;;
47966;SDS011;33733;52.456;13.620;2022-08-19T10:55:35;15.68;;;13.30;;
47966;SDS011;33733;52.456;13.620;2022-08-19T10:58:21;23.55;;;10.90;;
47966;SDS011;33733;52.456;13.620;2022-08-19T11:00:53;15.05;;;9.70;;
47966;SDS011;33733;52.456;13.620;2022-08-19T11:03:21;14.02;;;9.05;;
47966;SDS011;33733;52.456;13.620;2022-08-19T11:05:56;16.27;;;11.52;;
47966;SDS011;33733;52.456;13.620;2022-08-19T11:08:26;13.38;;;9.55;;
47966;SDS011;33733;52.456;13.620;2022-08-19T11:10:53;15.45;;;9.85;;
47966;SDS011;33733;52.456;13.620;2022-08-19T11:13:23;16.15;;;9.50;;
47966;SDS011;33733;52.456;13.620;2022-08-19T11:16:00;14.80;;;10.07;;
47966;SDS011;33733;52.456;13.620;2022-08-19T11:18:41;13.85;;;9.00;;
47966;SDS011;33733;52.456;13.620;2022-08-19T11:21:14;15.70;;;10.00;;
47966;SDS011;33733;52.456;13.620;2022-08-19T11:23:43;16.98;;;10.15;;
47966;SDS011;33733;52.456;13.620;2022-08-19T11:26:10;16.20;;;11.82;;
47966;SDS011;33733;52.456;13.620;2022-08-19T11:28:37;14.68;;;10.45;;
47966;SDS011;33733;52.456;13.620;2022-08-19T11:31:09;15.82;;;10.38;;
47966;SDS011;33733;52.456;13.620;2022-08-19T11:33:40;14.27;;;9.93;;
47966;SDS011;33733;52.456;13.620;2022-08-19T11:36:12;16.95;;;11.48;;
47966;SDS011;33733;52.456;13.620;2022-08-19T11:38:40;16.83;;;10.05;;
47966;SDS011;33733;52.456;13.620;2022-08-19T11:41:07;18.17;;;12.73;;
47966;SDS011;33733;52.456;13.620;2022-08-19T11:43:34;16.50;;;10.35;;
47966;SDS011;33733;52.456;13.620;2022-08-19T11:46:04;13.45;;;9.48;;
47966;SDS011;33733;52.456;13.620;2022-08-19T11:48:34;16.63;;;11.88;;
47966;SDS011;33733;52.456;13.620;2022-08-19T11:51:09;14.70;;;9.73;;
47966;SDS011;33733;52.456;13.620;2022-08-19T11:53:38;18.17;;;11.77;;
47966;SDS011;33733;52.456;13.620;2022-08-19T11:56:05;17.92;;;11.77;;
47966;SDS011;33733;52.456;13.620;2022-08-19T11:58:32;18.20;;;12.88;;
47966;SDS011;33733;52.456;13.620;2022-08-19T12:01:00;13.40;;;9.82;;
47966;SDS011;33733;52.456;13.620;2022-08-19T12:03:27;19.27;;;12.05;;
47966;SDS011;33733;52.456;13.620;2022-08-19T12:05:54;13.73;;;9.82;;
47966;SDS011;33733;52.456;13.620;2022-08-19T12:08:20;13.40;;;9.93;;
47966;SDS011;33733;52.456;13.620;2022-08-19T12:10:47;16.90;;;10.43;;
47966;SDS011;33733;52.456;13.620;2022-08-19T12:13:14;14.82;;;9.50;;
47966;SDS011;33733;52.456;13.620;2022-08-19T12:15:45;14.07;;;9.50;;
47966;SDS011;33733;52.456;13.620;2022-08-19T12:18:12;15.50;;;10.20;;
47966;SDS011;33733;52.456;13.620;2022-08-19T12:20:42;14.88;;;9.50;;
47966;SDS011;33733;52.456;13.620;2022-08-19T12:23:09;16.30;;;11.73;;
47966;SDS011;33733;52.456;13.620;2022-08-19T12:25:37;16.08;;;11.38;;
47966;SDS011;33733;52.456;13.620;2022-08-19T12:28:04;16.50;;;9.15;;
47966;SDS011;33733;52.456;13.620;2022-08-19T12:30:30;15.20;;;8.98;;
47966;SDS011;33733;52.456;13.620;2022-08-19T12:32:57;14.80;;;10.70;;
47966;SDS011;33733;52.456;13.620;2022-08-19T12:35:24;16.10;;;10.07;;
47966;SDS011;33733;52.456;13.620;2022-08-19T12:37:50;16.92;;;9.13;;
47966;SDS011;33733;52.456;13.620;2022-08-19T12:40:22;14.75;;;8.82;;
47966;SDS011;33733;52.456;13.620;2022-08-19T12:42:52;12.65;;;8.00;;
47966;SDS011;33733;52.456;13.620;2022-08-19T12:45:19;15.73;;;8.70;;
47966;SDS011;33733;52.456;13.620;2022-08-19T12:47:46;14.27;;;10.52;;
47966;SDS011;33733;52.456;13.620;2022-08-19T12:52:41;13.25;;;8.15;;
47966;SDS011;33733;52.456;13.620;2022-08-19T12:55:08;13.80;;;7.75;;
47966;SDS011;33733;52.456;13.620;2022-08-19T12:57:36;11.70;;;8.20;;
47966;SDS011;33733;52.456;13.620;2022-08-19T13:00:05;12.05;;;7.88;;
47966;SDS011;33733;52.456;13.620;2022-08-19T13:02:38;11.02;;;7.78;;
47966;SDS011;33733;52.456;13.620;2022-08-19T13:05:11;14.60;;;9.05;;
47966;SDS011;33733;52.456;13.620;2022-08-19T13:07:39;12.85;;;7.47;;
47966;SDS011;33733;52.456;13.620;2022-08-19T13:10:07;14.88;;;7.45;;
47966;SDS011;33733;52.456;13.620;2022-08-19T13:12:35;15.60;;;9.80;;
47966;SDS011;33733;52.456;13.620;2022-08-19T13:15:02;11.95;;;8.07;;
47966;SDS011;33733;52.456;13.620;2022-08-19T13:17:36;10.77;;;7.07;;
47966;SDS011;33733;52.456;13.620;2022-08-19T13:20:04;13.52;;;9.18;;
47966;SDS011;33733;52.456;13.620;2022-08-19T13:22:34;11.48;;;6.60;;
47966;SDS011;33733;52.456;13.620;2022-08-19T13:25:03;11.80;;;6.93;;
47966;SDS011;33733;52.456;13.620;2022-08-19T13:27:31;12.65;;;8.23;;
47966;SDS011;33733;52.456;13.620;2022-08-19T13:29:58;14.18;;;6.78;;
47966;SDS011;33733;52.456;13.620;2022-08-19T13:32:43;10.55;;;6.18;;
47966;SDS011;33733;52.456;13.620;2022-08-19T13:35:28;9.85;;;6.53;;
47966;SDS011;33733;52.456;13.620;2022-08-19T13:37:55;13.30;;;8.77;;
47966;SDS011;33733;52.456;13.620;2022-08-19T13:40:23;11.38;;;6.97;;
47966;SDS011;33733;52.456;13.620;2022-08-19T13:42:53;11.18;;;6.75;;
47966;SDS011;33733;52.456;13.620;2022-08-19T13:45:21;11.52;;;8.43;;
47966;SDS011;33733;52.456;13.620;2022-08-19T13:47:51;11.57;;;6.63;;
47966;SDS011;33733;52.456;13.620;2022-08-19T13:50:26;9.57;;;6.30;;
47966;SDS011;33733;52.456;13.620;2022-08-19T13:52:55;14.85;;;8.93;;
47966;SDS011;33733;52.456;13.620;2022-08-19T13:55:22;12.93;;;8.38;;
47966;SDS011;33733;52.456;13.620;2022-08-19T13:57:58;11.65;;;8.07;;
47966;SDS011;33733;52.456;13.620;2022-08-19T14:00:27;14.75;;;9.20;;
47966;SDS011;33733;52.456;13.620;2022-08-19T14:05:22;11.63;;;7.53;;
47966;SDS011;33733;52.456;13.620;2022-08-19T14:07:49;13.77;;;7.95;;
47966;SDS011;33733;52.456;13.620;2022-08-19T14:10:16;13.57;;;8.95;;
47966;SDS011;33733;52.456;13.620;2022-08-19T14:12:45;14.15;;;8.10;;
47966;SDS011;33733;52.456;13.620;2022-08-19T14:15:13;13.82;;;9.27;;
47966;SDS011;33733;52.456;13.620;2022-08-19T14:17:40;14.07;;;8.77;;
47966;SDS011;33733;52.456;13.620;2022-08-19T14:20:08;13.93;;;9.43;;
47966;SDS011;33733;52.456;13.620;2022-08-19T14:22:43;13.90;;;8.80;;
47966;SDS011;33733;52.456;13.620;2022-08-19T14:25:12;11.57;;;7.45;;
47966;SDS011;33733;52.456;13.620;2022-08-19T14:27:41;18.10;;;10.18;;
47966;SDS011;33733;52.456;13.620;2022-08-19T14:30:10;11.73;;;7.97;;
47966;SDS011;33733;52.456;13.620;2022-08-19T14:32:38;11.70;;;7.75;;
47966;SDS011;33733;52.456;13.620;2022-08-19T14:35:05;16.45;;;10.55;;
47966;SDS011;33733;52.456;13.620;2022-08-19T14:37:33;12.18;;;7.85;;
47966;SDS011;33733;52.456;13.620;2022-08-19T14:40:11;14.98;;;8.45;;
47966;SDS011;33733;52.456;13.620;2022-08-19T14:42:39;12.57;;;8.07;;
47966;SDS011;33733;52.456;13.620;2022-08-19T14:45:07;12.95;;;7.88;;
47966;SDS011;33733;52.456;13.620;2022-08-19T14:47:34;11.25;;;7.85;;
47966;SDS011;33733;52.456;13.620;2022-08-19T14:50:09;14.23;;;9.88;;
47966;SDS011;33733;52.456;13.620;2022-08-19T14:52:44;15.68;;;8.43;;
47966;SDS011;33733;52.456;13.620;2022-08-19T14:55:14;17.17;;;10.43;;
47966;SDS011;33733;52.456;13.620;2022-08-19T14:57:42;15.38;;;10.05;;
47966;SDS011;33733;52.456;13.620;2022-08-19T15:00:10;15.50;;;10.70;;
47966;SDS011;33733;52.456;13.620;2022-08-19T15:02:40;13.77;;;9.55;;
47966;SDS011;33733;52.456;13.620;2022-08-19T15:05:08;12.15;;;8.15;;
47966;SDS011;33733;52.456;13.620;2022-08-19T15:07:35;12.55;;;8.52;;
47966;SDS011;33733;52.456;13.620;2022-08-19T15:10:02;15.32;;;10.90;;
47966;SDS011;33733;52.456;13.620;2022-08-19T15:12:29;13.73;;;7.90;;
47966;SDS011;33733;52.456;13.620;2022-08-19T15:14:56;14.05;;;8.80;;
47966;SDS011;33733;52.456;13.620;2022-08-19T15:17:23;15.40;;;9.90;;
47966;SDS011;33733;52.456;13.620;2022-08-19T15:20:11;12.90;;;9.82;;
47966;SDS011;33733;52.456;13.620;2022-08-19T15:22:39;13.20;;;8.10;;
47966;SDS011;33733;52.456;13.620;2022-08-19T15:25:06;16.10;;;10.45;;
47966;SDS011;33733;52.456;13.620;2022-08-19T15:27:37;11.23;;;7.82;;
47966;SDS011;33733;52.456;13.620;2022-08-19T15:30:09;12.73;;;8.45;;
47966;SDS011;33733;52.456;13.620;2022-08-19T15:32:37;11.70;;;8.15;;
47966;SDS011;33733;52.456;13.620;2022-08-19T15:35:05;12.07;;;7.72;;
47966;SDS011;33733;52.456;13.620;2022-08-19T15:37:32;11.82;;;6.75;;
47966;SDS011;33733;52.456;13.620;2022-08-19T15:40:03;12.77;;;9.40;;
47966;SDS011;33733;52.456;13.620;2022-08-19T15:42:31;12.45;;;8.90;;
47966;SDS011;33733;52.456;13.620;2022-08-19T15:44:59;12.48;;;7.75;;
47966;SDS011;33733;52.456;13.620;2022-08-19T15:47:28;12.20;;;7.20;;
47966;SDS011;33733;52.456;13.620;2022-08-19T15:50:04;12.77;;;7.13;;
47966;SDS011;33733;52.456;13.620;2022-08-19T15:52:36;11.85;;;7.35;;
47966;SDS011;33733;52.456;13.620;2022-08-19T15:55:16;12.00;;;8.70;;
47966;SDS011;33733;52.456;13.620;2022-08-19T15:58:06;13.80;;;6.68;;
47966;SDS011;33733;52.456;13.620;2022-08-19T16:00:59;10.32;;;6.45;;
47966;SDS011;33733;52.456;13.620;2022-08-19T16:03:49;10.75;;;6.20;;
47966;SDS011;33733;52.456;13.620;2022-08-19T16:06:40;12.23;;;7.30;;
47966;SDS011;33733;52.456;13.620;2022-08-19T16:09:15;13.43;;;6.63;;
47966;SDS011;33733;52.456;13.620;2022-08-19T16:11:42;12.57;;;6.63;;
47966;SDS011;33733;52.456;13.620;2022-08-19T16:14:15;10.70;;;6.90;;
47966;SDS011;33733;52.456;13.620;2022-08-19T16:16:44;11.82;;;8.68;;
47966;SDS011;33733;52.456;13.620;2022-08-19T16:19:13;12.85;;;6.45;;
47966;SDS011;33733;52.456;13.620;2022-08-19T16:24:12;11.85;;;8.38;;
47966;SDS011;33733;52.456;13.620;2022-08-19T16:29:07;12.55;;;6.70;;
47966;SDS011;33733;52.456;13.620;2022-08-19T16:31:39;12.93;;;7.32;;
47966;SDS011;33733;52.456;13.620;2022-08-19T16:34:07;12.40;;;6.88;;
47966;SDS011;33733;52.456;13.620;2022-08-19T16:36:34;11.45;;;6.55;;
47966;SDS011;33733;52.456;13.620;2022-08-19T16:39:02;12.90;;;8.35;;
47966;SDS011;33733;52.456;13.620;2022-08-19T16:41:28;11.75;;;8.02;;
47966;SDS011;33733;52.456;13.620;2022-08-19T16:43:55;11.23;;;6.93;;
47966;SDS011;33733;52.456;13.620;2022-08-19T16:46:22;10.85;;;7.57;;
47966;SDS011;33733;52.456;13.620;2022-08-19T16:48:52;9.02;;;5.70;;
47966;SDS011;33733;52.456;13.620;2022-08-19T16:51:19;9.88;;;6.13;;
47966;SDS011;33733;52.456;13.620;2022-08-19T16:53:48;10.10;;;7.10;;
47966;SDS011;33733;52.456;13.620;2022-08-19T16:56:17;11.90;;;8.50;;
47966;SDS011;33733;52.456;13.620;2022-08-19T16:58:44;10.70;;;6.70;;
47966;SDS011;33733;52.456;13.620;2022-08-19T17:01:11;9.45;;;6.15;;
47966;SDS011;33733;52.456;13.620;2022-08-19T17:03:39;10.10;;;6.35;;
47966;SDS011;33733;52.456;13.620;2022-08-19T17:06:13;11.13;;;6.15;;
47966;SDS011;33733;52.456;13.620;2022-08-19T17:08:49;13.52;;;5.95;;
47966;SDS011;33733;52.456;13.620;2022-08-19T17:11:17;12.82;;;8.95;;
47966;SDS011;33733;52.456;13.620;2022-08-19T17:13:45;10.68;;;7.43;;
47966;SDS011;33733;52.456;13.620;2022-08-19T17:16:14;11.43;;;7.95;;
47966;SDS011;33733;52.456;13.620;2022-08-19T17:21:09;11.95;;;8.32;;
47966;SDS011;33733;52.456;13.620;2022-08-19T17:23:39;10.15;;;6.18;;
47966;SDS011;33733;52.456;13.620;2022-08-19T17:26:12;10.48;;;6.70;;
47966;SDS011;33733;52.456;13.620;2022-08-19T17:28:46;10.98;;;6.90;;
47966;SDS011;33733;52.456;13.620;2022-08-19T17:31:16;9.57;;;6.18;;
47966;SDS011;33733;52.456;13.620;2022-08-19T17:33:44;10.02;;;7.88;;
47966;SDS011;33733;52.456;13.620;2022-08-19T17:36:18;10.82;;;6.78;;
47966;SDS011;33733;52.456;13.620;2022-08-19T17:38:55;12.27;;;7.93;;
47966;SDS011;33733;52.456;13.620;2022-08-19T17:41:23;10.88;;;6.55;;
47966;SDS011;33733;52.456;13.620;2022-08-19T17:43:51;10.10;;;7.82;;
47966;SDS011;33733;52.456;13.620;2022-08-19T17:46:21;11.27;;;6.95;;
47966;SDS011;33733;52.456;13.620;2022-08-19T17:48:48;10.82;;;6.78;;
47966;SDS011;33733;52.456;13.620;2022-08-19T17:54:08;10.57;;;8.32;;
47966;SDS011;33733;52.456;13.620;2022-08-19T17:56:37;11.38;;;7.72;;
47966;SDS011;33733;52.456;13.620;2022-08-19T17:59:04;10.75;;;6.28;;
47966;SDS011;33733;52.456;13.620;2022-08-19T18:01:33;12.77;;;8.65;;
47966;SDS011;33733;52.456;13.620;2022-08-19T18:04:16;16.95;;;8.63;;
47966;SDS011;33733;52.456;13.620;2022-08-19T18:06:43;10.50;;;6.35;;
47966;SDS011;33733;52.456;13.620;2022-08-19T18:09:19;12.48;;;8.07;;
47966;SDS011;33733;52.456;13.620;2022-08-19T18:12:08;9.98;;;6.82;;
47966;SDS011;33733;52.456;13.620;2022-08-19T18:14:36;10.82;;;6.82;;
47966;SDS011;33733;52.456;13.620;2022-08-19T18:17:05;10.60;;;6.53;;
47966;SDS011;33733;52.456;13.620;2022-08-19T18:19:42;11.80;;;6.68;;
47966;SDS011;33733;52.456;13.620;2022-08-19T18:22:10;11.52;;;7.28;;
47966;SDS011;33733;52.456;13.620;2022-08-19T18:24:47;12.82;;;6.70;;
47966;SDS011;33733;52.456;13.620;2022-08-19T18:27:14;14.70;;;8.85;;
47966;SDS011;33733;52.456;13.620;2022-08-19T18:29:40;10.73;;;6.80;;
47966;SDS011;33733;52.456;13.620;2022-08-19T18:32:08;13.10;;;7.70;;
47966;SDS011;33733;52.456;13.620;2022-08-19T18:34:49;10.15;;;6.40;;
47966;SDS011;33733;52.456;13.620;2022-08-19T18:37:16;11.43;;;6.57;;
47966;SDS011;33733;52.456;13.620;2022-08-19T18:39:42;10.60;;;6.25;;
47966;SDS011;33733;52.456;13.620;2022-08-19T18:42:28;10.38;;;6.30;;
47966;SDS011;33733;52.456;13.620;2022-08-19T18:45:13;10.35;;;7.60;;
47966;SDS011;33733;52.456;13.620;2022-08-19T18:47:58;10.02;;;5.88;;
47966;SDS011;33733;52.456;13.620;2022-08-19T18:50:53;11.70;;;6.20;;
47966;SDS011;33733;52.456;13.620;2022-08-19T18:53:20;11.13;;;6.60;;
47966;SDS011;33733;52.456;13.620;2022-08-19T18:55:47;10.52;;;5.85;;
47966;SDS011;33733;52.456;13.620;2022-08-19T18:58:17;10.43;;;6.25;;
47966;SDS011;33733;52.456;13.620;2022-08-19T19:00:43;12.15;;;5.53;;
47966;SDS011;33733;52.456;13.620;2022-08-19T19:03:10;9.65;;;5.25;;
47966;SDS011;33733;52.456;13.620;2022-08-19T19:05:36;10.90;;;5.30;;
47966;SDS011;33733;52.456;13.620;2022-08-19T19:08:05;9.65;;;5.50;;
47966;SDS011;33733;52.456;13.620;2022-08-19T19:10:32;10.27;;;5.35;;
47966;SDS011;33733;52.456;13.620;2022-08-19T19:13:00;10.48;;;5.82;;
47966;SDS011;33733;52.456;13.620;2022-08-19T19:15:27;11.10;;;7.20;;
47966;SDS011;33733;52.456;13.620;2022-08-19T19:17:54;10.68;;;5.85;;
47966;SDS011;33733;52.456;13.620;2022-08-19T19:20:24;10.15;;;5.80;;
47966;SDS011;33733;52.456;13.620;2022-08-19T19:23:01;10.55;;;6.00;;
47966;SDS011;33733;52.456;13.620;2022-08-19T19:25:28;10.57;;;6.75;;
47966;SDS011;33733;52.456;13.620;2022-08-19T19:28:15;12.55;;;6.80;;
47966;SDS011;33733;52.456;13.620;2022-08-19T19:30:41;9.85;;;6.55;;
47966;SDS011;33733;52.456;13.620;2022-08-19T19:33:08;10.13;;;6.45;;
47966;SDS011;33733;52.456;13.620;2022-08-19T19:35:34;11.98;;;5.95;;
47966;SDS011;33733;52.456;13.620;2022-08-19T19:38:01;10.68;;;5.80;;
47966;SDS011;33733;52.456;13.620;2022-08-19T19:40:27;10.70;;;5.53;;
47966;SDS011;33733;52.456;13.620;2022-08-19T19:42:54;9.82;;;5.30;;
47966;SDS011;33733;52.456;13.620;2022-08-19T19:45:21;12.98;;;7.55;;
47966;SDS011;33733;52.456;13.620;2022-08-19T19:47:48;8.27;;;4.93;;
47966;SDS011;33733;52.456;13.620;2022-08-19T19:50:15;11.07;;;5.57;;
47966;SDS011;33733;52.456;13.620;2022-08-19T19:52:43;9.73;;;6.28;;
47966;SDS011;33733;52.456;13.620;2022-08-19T19:55:11;11.27;;;7.03;;
47966;SDS011;33733;52.456;13.620;2022-08-19T19:57:46;10.65;;;4.95;;
47966;SDS011;33733;52.456;13.620;2022-08-19T20:00:15;8.95;;;4.95;;
47966;SDS011;33733;52.456;13.620;2022-08-19T20:02:43;10.63;;;5.07;;
47966;SDS011;33733;52.456;13.620;2022-08-19T20:05:15;11.57;;;5.70;;
47966;SDS011;33733;52.456;13.620;2022-08-19T20:07:43;8.90;;;4.95;;
47966;SDS011;33733;52.456;13.620;2022-08-19T20:10:28;10.75;;;4.85;;
47966;SDS011;33733;52.456;13.620;2022-08-19T20:12:59;12.75;;;5.93;;
47966;SDS011;33733;52.456;13.620;2022-08-19T20:15:27;8.68;;;4.63;;
47966;SDS011;33733;52.456;13.620;2022-08-19T20:17:54;12.27;;;5.53;;
47966;SDS011;33733;52.456;13.620;2022-08-19T20:20:21;11.13;;;6.43;;
47966;SDS011;33733;52.456;13.620;2022-08-19T20:22:48;10.23;;;4.97;;
47966;SDS011;33733;52.456;13.620;2022-08-19T20:25:16;9.65;;;4.90;;
47966;SDS011;33733;52.456;13.620;2022-08-19T20:27:47;10.70;;;5.57;;
47966;SDS011;33733;52.456;13.620;2022-08-19T20:30:15;8.63;;;4.75;;
47966;SDS011;33733;52.456;13.620;2022-08-19T20:32:45;9.05;;;6.63;;
47966;SDS011;33733;52.456;13.620;2022-08-19T20:35:12;9.65;;;6.63;;
47966;SDS011;33733;52.456;13.620;2022-08-19T20:37:40;10.52;;;4.78;;
47966;SDS011;33733;52.456;13.620;2022-08-19T20:40:07;9.05;;;6.80;;
47966;SDS011;33733;52.456;13.620;2022-08-19T20:42:39;9.15;;;4.95;;
47966;SDS011;33733;52.456;13.620;2022-08-19T20:45:08;7.18;;;4.05;;
47966;SDS011;33733;52.456;13.620;2022-08-19T20:47:56;7.85;;;4.60;;
47966;SDS011;33733;52.456;13.620;2022-08-19T20:50:22;8.40;;;4.75;;
47966;SDS011;33733;52.456;13.620;2022-08-19T20:52:49;8.20;;;4.93;;
47966;SDS011;33733;52.456;13.620;2022-08-19T20:55:19;7.70;;;4.65;;
47966;SDS011;33733;52.456;13.620;2022-08-19T20:57:47;9.02;;;4.70;;
47966;SDS011;33733;52.456;13.620;2022-08-19T21:00:13;8.60;;;4.80;;
47966;SDS011;33733;52.456;13.620;2022-08-19T21:02:40;9.35;;;4.82;;
47966;SDS011;33733;52.456;13.620;2022-08-19T21:05:07;8.57;;;5.90;;
47966;SDS011;33733;52.456;13.620;2022-08-19T21:07:33;7.70;;;4.10;;
47966;SDS011;33733;52.456;13.620;2022-08-19T21:10:05;8.18;;;4.85;;
47966;SDS011;33733;52.456;13.620;2022-08-19T21:12:31;9.18;;;4.43;;
47966;SDS011;33733;52.456;13.620;2022-08-19T21:14:58;11.60;;;5.07;;
47966;SDS011;33733;52.456;13.620;2022-08-19T21:17:25;12.38;;;6.20;;
47966;SDS011;33733;52.456;13.620;2022-08-19T21:19:51;6.88;;;4.10;;
47966;SDS011;33733;52.456;13.620;2022-08-19T21:22:18;8.95;;;4.97;;
47966;SDS011;33733;52.456;13.620;2022-08-19T21:24:44;9.10;;;5.38;;
47966;SDS011;33733;52.456;13.620;2022-08-19T21:27:11;8.07;;;5.40;;
47966;SDS011;33733;52.456;13.620;2022-08-19T21:29:37;9.15;;;4.80;;
47966;SDS011;33733;52.456;13.620;2022-08-19T21:32:05;9.70;;;4.65;;
47966;SDS011;33733;52.456;13.620;2022-08-19T21:34:32;7.72;;;4.60;;
47966;SDS011;33733;52.456;13.620;2022-08-19T21:36:59;8.25;;;4.90;;
47966;SDS011;33733;52.456;13.620;2022-08-19T21:39:25;9.55;;;6.47;;
47966;SDS011;33733;52.456;13.620;2022-08-19T21:41:52;9.65;;;4.88;;
47966;SDS011;33733;52.456;13.620;2022-08-19T21:44:19;9.30;;;4.38;;
47966;SDS011;33733;52.456;13.620;2022-08-19T21:46:46;8.68;;;4.90;;
47966;SDS011;33733;52.456;13.620;2022-08-19T21:49:16;8.02;;;5.20;;
47966;SDS011;33733;52.456;13.620;2022-08-19T21:51:42;11.88;;;7.57;;
47966;SDS011;33733;52.456;13.620;2022-08-19T21:54:09;8.98;;;5.53;;
47966;SDS011;33733;52.456;13.620;2022-08-19T21:56:39;11.23;;;7.28;;
47966;SDS011;33733;52.456;13.620;2022-08-19T21:59:06;8.25;;;5.15;;
47966;SDS011;33733;52.456;13.620;2022-08-19T22:01:33;8.90;;;5.57;;
47966;SDS011;33733;52.456;13.620;2022-08-19T22:04:00;11.77;;;6.72;;
47966;SDS011;33733;52.456;13.620;2022-08-19T22:06:27;11.15;;;6.13;;
47966;SDS011;33733;52.456;13.620;2022-08-19T22:08:54;9.20;;;5.47;;
47966;SDS011;33733;52.456;13.620;2022-08-19T22:11:21;8.30;;;4.97;;
47966;SDS011;33733;52.456;13.620;2022-08-19T22:13:49;9.25;;;5.53;;
47966;SDS011;33733;52.456;13.620;2022-08-19T22:16:19;10.15;;;7.13;;
47966;SDS011;33733;52.456;13.620;2022-08-19T22:18:46;10.30;;;5.38;;
47966;SDS011;33733;52.456;13.620;2022-08-19T22:21:14;12.32;;;5.28;;
47966;SDS011;33733;52.456;13.620;2022-08-19T22:23:56;9.50;;;6.75;;
47966;SDS011;33733;52.456;13.620;2022-08-19T22:26:23;8.18;;;5.05;;
47966;SDS011;33733;52.456;13.620;2022-08-19T22:28:49;9.35;;;6.75;;
47966;SDS011;33733;52.456;13.620;2022-08-19T22:31:16;13.80;;;6.10;;
47966;SDS011;33733;52.456;13.620;2022-08-19T22:33:43;10.73;;;7.18;;
47966;SDS011;33733;52.456;13.620;2022-08-19T22:36:10;11.10;;;6.43;;
47966;SDS011;33733;52.456;13.620;2022-08-19T22:38:37;12.35;;;7.97;;
47966;SDS011;33733;52.456;13.620;2022-08-19T22:41:04;10.40;;;6.32;;
47966;SDS011;33733;52.456;13.620;2022-08-19T22:43:33;11.65;;;7.95;;
47966;SDS011;33733;52.456;13.620;2022-08-19T22:45:59;12.32;;;8.25;;
47966;SDS011;33733;52.456;13.620;2022-08-19T22:48:27;15.73;;;9.13;;
47966;SDS011;33733;52.456;13.620;2022-08-19T22:50:55;12.15;;;8.82;;
47966;SDS011;33733;52.456;13.620;2022-08-19T22:53:42;12.77;;;7.07;;
47966;SDS011;33733;52.456;13.620;2022-08-19T22:56:10;10.85;;;6.72;;
47966;SDS011;33733;52.456;13.620;2022-08-19T22:58:40;12.38;;;7.32;;
47966;SDS011;33733;52.456;13.620;2022-08-19T23:01:09;11.98;;;6.63;;
47966;SDS011;33733;52.456;13.620;2022-08-19T23:03:41;11.73;;;7.38;;
47966;SDS011;33733;52.456;13.620;2022-08-19T23:06:08;11.73;;;7.55;;
47966;SDS011;33733;52.456;13.620;2022-08-19T23:08:36;14.82;;;9.85;;
47966;SDS011;33733;52.456;13.620;2022-08-19T23:11:04;12.48;;;9.00;;
47966;SDS011;33733;52.456;13.620;2022-08-19T23:13:32;12.20;;;7.57;;
47966;SDS011;33733;52.456;13.620;2022-08-19T23:16:01;12.63;;;8.90;;
47966;SDS011;33733;52.456;13.620;2022-08-19T23:18:28;11.70;;;8.13;;
47966;SDS011;33733;52.456;13.620;2022-08-19T23:20:54;11.30;;;6.47;;
47966;SDS011;33733;52.456;13.620;2022-08-19T23:23:21;12.20;;;6.30;;
47966;SDS011;33733;52.456;13.620;2022-08-19T23:25:50;10.07;;;6.38;;
47966;SDS011;33733;52.456;13.620;2022-08-19T23:28:18;8.73;;;5.60;;
47966;SDS011;33733;52.456;13.620;2022-08-19T23:31:03;11.05;;;6.50;;
47966;SDS011;33733;52.456;13.620;2022-08-19T23:33:35;11.95;;;6.57;;
47966;SDS011;33733;52.456;13.620;2022-08-19T23:36:17;8.77;;;4.78;;
47966;SDS011;33733;52.456;13.620;2022-08-19T23:38:45;9.30;;;5.65;;
47966;SDS011;33733;52.456;13.620;2022-08-19T23:43:40;11.40;;;7.93;;
47966;SDS011;33733;52.456;13.620;2022-08-19T23:46:09;10.88;;;7.03;;
47966;SDS011;33733;52.456;13.620;2022-08-19T23:48:37;12.63;;;6.82;;
47966;SDS011;33733;52.456;13.620;2022-08-19T23:51:06;15.23;;;7.28;;
47966;SDS011;33733;52.456;13.620;2022-08-19T23:53:35;11.88;;;7.95;;
47966;SDS011;33733;52.456;13.620;2022-08-19T23:56:03;11.55;;;8.70;;
47966;SDS011;33733;52.456;13.620;2022-08-19T23:58:33;11.20;;;7.63;;
